sensor_id;sensor_type;location;lat;lon;timestamp;temperature;humidity
12130;DHT22;6128;59.340;18.040;2023-05-20T00:00:44;9.50;81.30
12130;DHT22;6128;59.340;18.040;2023-05-20T00:03:13;9.50;81.40
12130;DHT22;6128;59.340;18.040;2023-05-20T00:05:40;9.50;81.70
12130;DHT22;6128;59.340;18.040;2023-05-20T00:08:07;9.50;81.90
12130;DHT22;6128;59.340;18.040;2023-05-20T00:10:37;9.50;82.20
12130;DHT22;6128;59.340;18.040;2023-05-20T00:13:04;9.50;82.40
12130;DHT22;6128;59.340;18.040;2023-05-20T00:15:33;9.50;82.70
12130;DHT22;6128;59.340;18.040;2023-05-20T00:18:02;9.50;82.90
12130;DHT22;6128;59.340;18.040;2023-05-20T00:20:29;9.50;82.90
12130;DHT22;6128;59.340;18.040;2023-05-20T00:22:57;9.50;83.10
12130;DHT22;6128;59.340;18.040;2023-05-20T00:25:24;9.50;83.50
12130;DHT22;6128;59.340;18.040;2023-05-20T00:27:53;9.40;83.90
12130;DHT22;6128;59.340;18.040;2023-05-20T00:30:20;9.40;84.50
12130;DHT22;6128;59.340;18.040;2023-05-20T00:32:47;9.40;85.00
12130;DHT22;6128;59.340;18.040;2023-05-20T00:35:14;9.40;85.10
12130;DHT22;6128;59.340;18.040;2023-05-20T00:37:42;9.40;85.30
12130;DHT22;6128;59.340;18.040;2023-05-20T00:40:09;9.40;85.40
12130;DHT22;6128;59.340;18.040;2023-05-20T00:42:37;9.40;85.60
12130;DHT22;6128;59.340;18.040;2023-05-20T00:45:07;9.30;85.60
12130;DHT22;6128;59.340;18.040;2023-05-20T00:47:34;9.30;85.60
12130;DHT22;6128;59.340;18.040;2023-05-20T00:50:02;9.30;85.70
12130;DHT22;6128;59.340;18.040;2023-05-20T00:52:30;9.30;85.70
12130;DHT22;6128;59.340;18.040;2023-05-20T00:54:59;9.30;85.80
12130;DHT22;6128;59.340;18.040;2023-05-20T00:57:26;9.20;86.10
12130;DHT22;6128;59.340;18.040;2023-05-20T00:59:54;9.20;86.40
12130;DHT22;6128;59.340;18.040;2023-05-20T01:02:23;9.20;86.80
12130;DHT22;6128;59.340;18.040;2023-05-20T01:04:50;9.20;87.20
12130;DHT22;6128;59.340;18.040;2023-05-20T01:07:18;9.10;87.70
12130;DHT22;6128;59.340;18.040;2023-05-20T01:09:46;9.10;88.10
12130;DHT22;6128;59.340;18.040;2023-05-20T01:12:16;9.10;88.30
12130;DHT22;6128;59.340;18.040;2023-05-20T01:14:47;9.10;88.60
12130;DHT22;6128;59.340;18.040;2023-05-20T01:17:15;9.10;89.00
12130;DHT22;6128;59.340;18.040;2023-05-20T01:19:47;9.10;89.30
12130;DHT22;6128;59.340;18.040;2023-05-20T01:22:14;9.10;89.60
12130;DHT22;6128;59.340;18.040;2023-05-20T01:24:44;9.10;89.80
12130;DHT22;6128;59.340;18.040;2023-05-20T01:27:13;9.10;90.20
12130;DHT22;6128;59.340;18.040;2023-05-20T01:29:41;9.10;90.20
12130;DHT22;6128;59.340;18.040;2023-05-20T01:32:19;9.10;90.20
12130;DHT22;6128;59.340;18.040;2023-05-20T01:34:48;9.10;90.30
12130;DHT22;6128;59.340;18.040;2023-05-20T01:37:16;9.00;90.40
12130;DHT22;6128;59.340;18.040;2023-05-20T01:39:46;9.00;90.40
12130;DHT22;6128;59.340;18.040;2023-05-20T01:42:15;9.00;90.50
12130;DHT22;6128;59.340;18.040;2023-05-20T01:44:43;9.10;90.60
12130;DHT22;6128;59.340;18.040;2023-05-20T01:47:10;9.00;90.70
12130;DHT22;6128;59.340;18.040;2023-05-20T01:49:37;9.00;90.80
12130;DHT22;6128;59.340;18.040;2023-05-20T01:52:05;9.00;90.80
12130;DHT22;6128;59.340;18.040;2023-05-20T01:54:32;9.00;90.90
12130;DHT22;6128;59.340;18.040;2023-05-20T01:57:01;9.00;91.00
12130;DHT22;6128;59.340;18.040;2023-05-20T01:59:28;9.00;91.10
12130;DHT22;6128;59.340;18.040;2023-05-20T02:01:55;9.00;91.10
12130;DHT22;6128;59.340;18.040;2023-05-20T02:04:22;9.00;91.30
12130;DHT22;6128;59.340;18.040;2023-05-20T02:06:49;9.00;91.30
12130;DHT22;6128;59.340;18.040;2023-05-20T02:09:17;9.10;91.30
12130;DHT22;6128;59.340;18.040;2023-05-20T02:11:44;9.10;91.30
12130;DHT22;6128;59.340;18.040;2023-05-20T02:14:13;9.10;91.40
12130;DHT22;6128;59.340;18.040;2023-05-20T02:16:40;9.10;91.50
12130;DHT22;6128;59.340;18.040;2023-05-20T02:19:07;9.10;91.50
12130;DHT22;6128;59.340;18.040;2023-05-20T02:21:38;9.10;91.50
12130;DHT22;6128;59.340;18.040;2023-05-20T02:24:06;9.10;91.50
12130;DHT22;6128;59.340;18.040;2023-05-20T02:26:34;9.00;91.50
12130;DHT22;6128;59.340;18.040;2023-05-20T02:29:01;9.00;91.50
12130;DHT22;6128;59.340;18.040;2023-05-20T02:31:31;9.00;91.50
12130;DHT22;6128;59.340;18.040;2023-05-20T02:33:58;9.10;91.50
12130;DHT22;6128;59.340;18.040;2023-05-20T02:36:25;9.00;91.50
12130;DHT22;6128;59.340;18.040;2023-05-20T02:38:53;9.10;91.60
12130;DHT22;6128;59.340;18.040;2023-05-20T02:41:21;9.10;91.60
12130;DHT22;6128;59.340;18.040;2023-05-20T02:43:48;9.00;91.70
12130;DHT22;6128;59.340;18.040;2023-05-20T02:46:15;9.10;91.90
12130;DHT22;6128;59.340;18.040;2023-05-20T02:48:45;9.10;92.20
12130;DHT22;6128;59.340;18.040;2023-05-20T02:51:12;9.00;92.40
12130;DHT22;6128;59.340;18.040;2023-05-20T02:53:39;9.10;92.70
12130;DHT22;6128;59.340;18.040;2023-05-20T02:56:06;9.10;92.90
12130;DHT22;6128;59.340;18.040;2023-05-20T02:58:34;9.10;93.10
12130;DHT22;6128;59.340;18.040;2023-05-20T03:01:01;9.10;93.20
12130;DHT22;6128;59.340;18.040;2023-05-20T03:03:28;9.20;93.10
12130;DHT22;6128;59.340;18.040;2023-05-20T03:05:57;9.20;93.20
12130;DHT22;6128;59.340;18.040;2023-05-20T03:08:24;9.20;93.20
12130;DHT22;6128;59.340;18.040;2023-05-20T03:10:51;9.30;93.20
12130;DHT22;6128;59.340;18.040;2023-05-20T03:13:18;9.30;93.10
12130;DHT22;6128;59.340;18.040;2023-05-20T03:15:46;9.30;93.20
12130;DHT22;6128;59.340;18.040;2023-05-20T03:18:13;9.30;93.30
12130;DHT22;6128;59.340;18.040;2023-05-20T03:20:40;9.40;93.30
12130;DHT22;6128;59.340;18.040;2023-05-20T03:23:09;9.40;93.40
12130;DHT22;6128;59.340;18.040;2023-05-20T03:25:37;9.40;93.40
12130;DHT22;6128;59.340;18.040;2023-05-20T03:28:04;9.50;93.40
12130;DHT22;6128;59.340;18.040;2023-05-20T03:30:32;9.50;93.30
12130;DHT22;6128;59.340;18.040;2023-05-20T03:32:59;9.50;93.20
12130;DHT22;6128;59.340;18.040;2023-05-20T03:35:27;9.50;93.20
12130;DHT22;6128;59.340;18.040;2023-05-20T03:37:54;9.60;93.10
12130;DHT22;6128;59.340;18.040;2023-05-20T03:40:23;9.60;93.20
12130;DHT22;6128;59.340;18.040;2023-05-20T03:42:50;9.60;93.10
12130;DHT22;6128;59.340;18.040;2023-05-20T03:45:17;9.60;93.10
12130;DHT22;6128;59.340;18.040;2023-05-20T03:47:44;9.70;93.10
12130;DHT22;6128;59.340;18.040;2023-05-20T03:50:12;9.70;93.00
12130;DHT22;6128;59.340;18.040;2023-05-20T03:52:39;9.70;92.90
12130;DHT22;6128;59.340;18.040;2023-05-20T03:55:07;9.70;92.80
12130;DHT22;6128;59.340;18.040;2023-05-20T03:57:36;9.70;92.80
12130;DHT22;6128;59.340;18.040;2023-05-20T04:00:03;9.80;92.70
12130;DHT22;6128;59.340;18.040;2023-05-20T04:02:35;9.80;92.60
12130;DHT22;6128;59.340;18.040;2023-05-20T04:05:03;9.80;92.50
12130;DHT22;6128;59.340;18.040;2023-05-20T04:07:30;9.80;92.40
12130;DHT22;6128;59.340;18.040;2023-05-20T04:09:58;9.90;92.40
12130;DHT22;6128;59.340;18.040;2023-05-20T04:12:25;9.90;92.50
12130;DHT22;6128;59.340;18.040;2023-05-20T04:14:57;9.90;92.40
12130;DHT22;6128;59.340;18.040;2023-05-20T04:17:26;9.90;92.50
12130;DHT22;6128;59.340;18.040;2023-05-20T04:19:54;9.90;92.50
12130;DHT22;6128;59.340;18.040;2023-05-20T04:22:23;9.90;92.50
12130;DHT22;6128;59.340;18.040;2023-05-20T04:24:50;10.00;92.40
12130;DHT22;6128;59.340;18.040;2023-05-20T04:27:17;10.10;92.30
12130;DHT22;6128;59.340;18.040;2023-05-20T04:29:46;10.10;92.10
12130;DHT22;6128;59.340;18.040;2023-05-20T04:32:16;10.20;92.00
12130;DHT22;6128;59.340;18.040;2023-05-20T04:34:44;10.20;91.80
12130;DHT22;6128;59.340;18.040;2023-05-20T04:37:13;10.40;91.70
12130;DHT22;6128;59.340;18.040;2023-05-20T04:39:40;10.40;91.70
12130;DHT22;6128;59.340;18.040;2023-05-20T04:42:08;10.50;91.70
12130;DHT22;6128;59.340;18.040;2023-05-20T04:44:35;10.60;91.60
12130;DHT22;6128;59.340;18.040;2023-05-20T04:47:03;10.60;91.50
12130;DHT22;6128;59.340;18.040;2023-05-20T04:49:33;10.70;91.50
12130;DHT22;6128;59.340;18.040;2023-05-20T04:52:01;10.80;91.50
12130;DHT22;6128;59.340;18.040;2023-05-20T04:54:29;10.90;91.40
12130;DHT22;6128;59.340;18.040;2023-05-20T04:56:57;10.90;91.40
12130;DHT22;6128;59.340;18.040;2023-05-20T04:59:24;11.00;91.40
12130;DHT22;6128;59.340;18.040;2023-05-20T05:01:52;11.10;91.40
12130;DHT22;6128;59.340;18.040;2023-05-20T05:04:19;11.20;91.40
12130;DHT22;6128;59.340;18.040;2023-05-20T05:06:48;11.30;91.30
12130;DHT22;6128;59.340;18.040;2023-05-20T05:09:15;11.40;91.30
12130;DHT22;6128;59.340;18.040;2023-05-20T05:11:43;11.50;91.30
12130;DHT22;6128;59.340;18.040;2023-05-20T05:14:10;11.60;91.20
12130;DHT22;6128;59.340;18.040;2023-05-20T05:16:37;11.70;91.20
12130;DHT22;6128;59.340;18.040;2023-05-20T05:19:04;11.80;91.10
12130;DHT22;6128;59.340;18.040;2023-05-20T05:21:31;11.80;91.10
12130;DHT22;6128;59.340;18.040;2023-05-20T05:24:00;11.90;91.00
12130;DHT22;6128;59.340;18.040;2023-05-20T05:26:27;12.00;91.00
12130;DHT22;6128;59.340;18.040;2023-05-20T05:28:54;12.10;90.90
12130;DHT22;6128;59.340;18.040;2023-05-20T05:31:22;12.20;90.90
12130;DHT22;6128;59.340;18.040;2023-05-20T05:33:49;12.30;90.90
12130;DHT22;6128;59.340;18.040;2023-05-20T05:36:16;12.30;90.80
12130;DHT22;6128;59.340;18.040;2023-05-20T05:38:43;12.40;90.80
12130;DHT22;6128;59.340;18.040;2023-05-20T05:41:11;12.50;90.70
12130;DHT22;6128;59.340;18.040;2023-05-20T05:43:39;12.60;90.70
12130;DHT22;6128;59.340;18.040;2023-05-20T05:46:06;12.70;90.70
12130;DHT22;6128;59.340;18.040;2023-05-20T05:48:35;12.90;90.60
12130;DHT22;6128;59.340;18.040;2023-05-20T05:51:03;13.00;90.60
12130;DHT22;6128;59.340;18.040;2023-05-20T05:53:31;13.20;90.60
12130;DHT22;6128;59.340;18.040;2023-05-20T05:55:58;13.40;90.60
12130;DHT22;6128;59.340;18.040;2023-05-20T05:58:27;13.70;90.70
12130;DHT22;6128;59.340;18.040;2023-05-20T06:00:59;14.00;90.70
12130;DHT22;6128;59.340;18.040;2023-05-20T06:03:27;14.70;90.80
12130;DHT22;6128;59.340;18.040;2023-05-20T06:05:55;15.80;91.00
12130;DHT22;6128;59.340;18.040;2023-05-20T06:08:23;17.00;91.20
12130;DHT22;6128;59.340;18.040;2023-05-20T06:10:50;18.20;91.40
12130;DHT22;6128;59.340;18.040;2023-05-20T06:13:17;19.20;91.60
12130;DHT22;6128;59.340;18.040;2023-05-20T06:15:48;20.10;91.70
12130;DHT22;6128;59.340;18.040;2023-05-20T06:18:15;20.80;90.20
12130;DHT22;6128;59.340;18.040;2023-05-20T06:20:42;21.30;90.20
12130;DHT22;6128;59.340;18.040;2023-05-20T06:23:10;21.60;89.70
12130;DHT22;6128;59.340;18.040;2023-05-20T06:25:37;22.00;89.00
12130;DHT22;6128;59.340;18.040;2023-05-20T06:28:04;22.50;88.50
12130;DHT22;6128;59.340;18.040;2023-05-20T06:30:32;22.70;88.50
12130;DHT22;6128;59.340;18.040;2023-05-20T06:33:01;22.90;87.90
12130;DHT22;6128;59.340;18.040;2023-05-20T06:35:29;23.50;86.70
12130;DHT22;6128;59.340;18.040;2023-05-20T06:37:56;23.90;85.90
12130;DHT22;6128;59.340;18.040;2023-05-20T06:40:23;24.60;84.30
12130;DHT22;6128;59.340;18.040;2023-05-20T06:42:51;25.00;82.90
12130;DHT22;6128;59.340;18.040;2023-05-20T06:45:19;25.50;82.20
12130;DHT22;6128;59.340;18.040;2023-05-20T06:47:46;25.60;80.60
12130;DHT22;6128;59.340;18.040;2023-05-20T06:50:16;25.90;80.30
12130;DHT22;6128;59.340;18.040;2023-05-20T06:52:43;25.90;78.50
12130;DHT22;6128;59.340;18.040;2023-05-20T06:55:10;25.90;77.50
12130;DHT22;6128;59.340;18.040;2023-05-20T06:57:37;26.00;77.20
12130;DHT22;6128;59.340;18.040;2023-05-20T07:00:06;26.10;75.90
12130;DHT22;6128;59.340;18.040;2023-05-20T07:02:33;26.30;75.60
12130;DHT22;6128;59.340;18.040;2023-05-20T07:05:01;26.50;74.20
12130;DHT22;6128;59.340;18.040;2023-05-20T07:07:29;26.50;73.10
12130;DHT22;6128;59.340;18.040;2023-05-20T07:09:57;26.60;72.80
12130;DHT22;6128;59.340;18.040;2023-05-20T07:12:24;26.80;71.60
12130;DHT22;6128;59.340;18.040;2023-05-20T07:14:51;26.80;71.20
12130;DHT22;6128;59.340;18.040;2023-05-20T07:17:18;26.60;69.80
12130;DHT22;6128;59.340;18.040;2023-05-20T07:19:46;26.80;69.00
12130;DHT22;6128;59.340;18.040;2023-05-20T07:22:13;26.90;67.50
12130;DHT22;6128;59.340;18.040;2023-05-20T07:24:42;26.80;67.20
12130;DHT22;6128;59.340;18.040;2023-05-20T07:27:09;26.80;66.80
12130;DHT22;6128;59.340;18.040;2023-05-20T07:29:37;26.80;65.70
12130;DHT22;6128;59.340;18.040;2023-05-20T07:32:04;26.80;65.10
12130;DHT22;6128;59.340;18.040;2023-05-20T07:34:32;26.80;64.80
12130;DHT22;6128;59.340;18.040;2023-05-20T07:36:59;26.60;63.90
12130;DHT22;6128;59.340;18.040;2023-05-20T07:39:26;26.60;63.30
12130;DHT22;6128;59.340;18.040;2023-05-20T07:41:55;26.70;62.90
12130;DHT22;6128;59.340;18.040;2023-05-20T07:44:22;26.70;61.70
12130;DHT22;6128;59.340;18.040;2023-05-20T07:46:49;26.50;61.10
12130;DHT22;6128;59.340;18.040;2023-05-20T07:49:16;26.20;60.60
12130;DHT22;6128;59.340;18.040;2023-05-20T07:51:43;26.00;60.20
12130;DHT22;6128;59.340;18.040;2023-05-20T07:54:11;25.60;59.70
12130;DHT22;6128;59.340;18.040;2023-05-20T07:56:39;25.30;59.10
12130;DHT22;6128;59.340;18.040;2023-05-20T07:59:08;25.10;58.80
12130;DHT22;6128;59.340;18.040;2023-05-20T08:01:35;24.60;58.40
12130;DHT22;6128;59.340;18.040;2023-05-20T08:04:03;24.30;58.20
12130;DHT22;6128;59.340;18.040;2023-05-20T08:06:30;24.10;58.10
12130;DHT22;6128;59.340;18.040;2023-05-20T08:08:58;23.90;58.00
12130;DHT22;6128;59.340;18.040;2023-05-20T08:11:26;23.60;57.90
12130;DHT22;6128;59.340;18.040;2023-05-20T08:13:53;23.70;57.80
12130;DHT22;6128;59.340;18.040;2023-05-20T08:16:22;23.60;57.80
12130;DHT22;6128;59.340;18.040;2023-05-20T08:18:49;23.50;57.70
12130;DHT22;6128;59.340;18.040;2023-05-20T08:21:16;23.50;57.70
12130;DHT22;6128;59.340;18.040;2023-05-20T08:23:44;23.20;57.40
12130;DHT22;6128;59.340;18.040;2023-05-20T08:26:11;23.30;57.50
12130;DHT22;6128;59.340;18.040;2023-05-20T08:28:38;23.10;57.40
12130;DHT22;6128;59.340;18.040;2023-05-20T08:31:05;23.10;57.50
12130;DHT22;6128;59.340;18.040;2023-05-20T08:33:34;23.30;57.50
12130;DHT22;6128;59.340;18.040;2023-05-20T08:36:02;23.50;57.40
12130;DHT22;6128;59.340;18.040;2023-05-20T08:38:29;23.50;57.50
12130;DHT22;6128;59.340;18.040;2023-05-20T08:40:56;23.80;57.60
12130;DHT22;6128;59.340;18.040;2023-05-20T08:43:26;23.90;57.50
12130;DHT22;6128;59.340;18.040;2023-05-20T08:45:55;24.10;57.60
12130;DHT22;6128;59.340;18.040;2023-05-20T08:48:24;24.10;57.80
12130;DHT22;6128;59.340;18.040;2023-05-20T08:50:56;24.20;57.90
12130;DHT22;6128;59.340;18.040;2023-05-20T08:53:24;24.20;58.00
12130;DHT22;6128;59.340;18.040;2023-05-20T08:55:53;24.40;58.30
12130;DHT22;6128;59.340;18.040;2023-05-20T08:58:22;24.50;58.60
12130;DHT22;6128;59.340;18.040;2023-05-20T09:00:49;24.60;58.70
12130;DHT22;6128;59.340;18.040;2023-05-20T09:03:18;24.70;58.50
12130;DHT22;6128;59.340;18.040;2023-05-20T09:05:46;25.10;58.40
12130;DHT22;6128;59.340;18.040;2023-05-20T09:08:15;25.40;58.20
12130;DHT22;6128;59.340;18.040;2023-05-20T09:10:43;25.50;57.30
12130;DHT22;6128;59.340;18.040;2023-05-20T09:13:11;25.80;56.90
12130;DHT22;6128;59.340;18.040;2023-05-20T09:15:38;26.00;56.20
12130;DHT22;6128;59.340;18.040;2023-05-20T09:18:07;26.30;55.80
12130;DHT22;6128;59.340;18.040;2023-05-20T09:20:35;26.50;55.40
12130;DHT22;6128;59.340;18.040;2023-05-20T09:23:04;26.40;54.10
12130;DHT22;6128;59.340;18.040;2023-05-20T09:25:33;25.50;52.10
12130;DHT22;6128;59.340;18.040;2023-05-20T09:28:02;24.50;50.70
12130;DHT22;6128;59.340;18.040;2023-05-20T09:30:31;23.70;49.80
12130;DHT22;6128;59.340;18.040;2023-05-20T09:33:00;23.00;49.10
12130;DHT22;6128;59.340;18.040;2023-05-20T09:35:30;22.30;48.30
12130;DHT22;6128;59.340;18.040;2023-05-20T09:37:57;21.60;47.90
12130;DHT22;6128;59.340;18.040;2023-05-20T09:40:25;21.10;47.60
12130;DHT22;6128;59.340;18.040;2023-05-20T09:42:58;20.70;47.30
12130;DHT22;6128;59.340;18.040;2023-05-20T09:45:27;20.50;47.10
12130;DHT22;6128;59.340;18.040;2023-05-20T09:47:55;20.20;46.80
12130;DHT22;6128;59.340;18.040;2023-05-20T09:50:23;20.00;46.80
12130;DHT22;6128;59.340;18.040;2023-05-20T09:52:52;19.90;46.80
12130;DHT22;6128;59.340;18.040;2023-05-20T09:55:22;19.70;46.70
12130;DHT22;6128;59.340;18.040;2023-05-20T09:57:49;19.50;46.90
12130;DHT22;6128;59.340;18.040;2023-05-20T10:00:19;19.50;46.90
12130;DHT22;6128;59.340;18.040;2023-05-20T10:02:49;19.50;46.90
12130;DHT22;6128;59.340;18.040;2023-05-20T10:05:20;19.40;46.90
12130;DHT22;6128;59.340;18.040;2023-05-20T10:08:11;19.30;46.80
12130;DHT22;6128;59.340;18.040;2023-05-20T10:10:47;19.20;46.60
12130;DHT22;6128;59.340;18.040;2023-05-20T10:13:27;19.20;46.60
12130;DHT22;6128;59.340;18.040;2023-05-20T10:16:06;19.30;46.50
12130;DHT22;6128;59.340;18.040;2023-05-20T10:18:43;19.10;46.50
12130;DHT22;6128;59.340;18.040;2023-05-20T10:21:16;19.00;46.70
12130;DHT22;6128;59.340;18.040;2023-05-20T10:23:43;19.00;46.90
12130;DHT22;6128;59.340;18.040;2023-05-20T10:26:11;19.10;47.10
12130;DHT22;6128;59.340;18.040;2023-05-20T10:28:40;19.10;47.20
12130;DHT22;6128;59.340;18.040;2023-05-20T10:31:20;19.20;47.40
12130;DHT22;6128;59.340;18.040;2023-05-20T10:33:50;19.20;47.60
12130;DHT22;6128;59.340;18.040;2023-05-20T10:36:22;19.20;47.70
12130;DHT22;6128;59.340;18.040;2023-05-20T10:38:52;19.40;47.90
12130;DHT22;6128;59.340;18.040;2023-05-20T10:41:21;19.40;48.20
12130;DHT22;6128;59.340;18.040;2023-05-20T10:43:59;19.30;48.30
12130;DHT22;6128;59.340;18.040;2023-05-20T10:46:29;19.20;48.30
12130;DHT22;6128;59.340;18.040;2023-05-20T10:48:56;19.20;48.50
12130;DHT22;6128;59.340;18.040;2023-05-20T10:51:24;19.30;48.60
12130;DHT22;6128;59.340;18.040;2023-05-20T10:53:54;19.40;48.60
12130;DHT22;6128;59.340;18.040;2023-05-20T10:56:23;19.50;48.70
12130;DHT22;6128;59.340;18.040;2023-05-20T10:58:51;19.60;48.80
12130;DHT22;6128;59.340;18.040;2023-05-20T11:01:25;19.60;48.90
12130;DHT22;6128;59.340;18.040;2023-05-20T11:03:56;19.70;48.90
12130;DHT22;6128;59.340;18.040;2023-05-20T11:06:26;19.70;48.80
12130;DHT22;6128;59.340;18.040;2023-05-20T11:08:54;19.70;48.90
12130;DHT22;6128;59.340;18.040;2023-05-20T11:11:21;19.60;48.80
12130;DHT22;6128;59.340;18.040;2023-05-20T11:13:52;19.80;48.80
12130;DHT22;6128;59.340;18.040;2023-05-20T11:16:19;19.90;48.90
12130;DHT22;6128;59.340;18.040;2023-05-20T11:18:48;20.10;49.00
12130;DHT22;6128;59.340;18.040;2023-05-20T11:21:17;20.20;49.00
12130;DHT22;6128;59.340;18.040;2023-05-20T11:23:45;20.30;49.10
12130;DHT22;6128;59.340;18.040;2023-05-20T11:26:12;20.30;49.20
12130;DHT22;6128;59.340;18.040;2023-05-20T11:28:39;20.40;49.20
12130;DHT22;6128;59.340;18.040;2023-05-20T11:31:07;20.40;49.30
12130;DHT22;6128;59.340;18.040;2023-05-20T11:33:34;20.40;49.20
12130;DHT22;6128;59.340;18.040;2023-05-20T11:36:01;20.40;49.10
12130;DHT22;6128;59.340;18.040;2023-05-20T11:38:30;20.40;49.00
12130;DHT22;6128;59.340;18.040;2023-05-20T11:40:58;20.50;48.70
12130;DHT22;6128;59.340;18.040;2023-05-20T11:43:25;20.30;48.40
12130;DHT22;6128;59.340;18.040;2023-05-20T11:45:53;20.30;48.20
12130;DHT22;6128;59.340;18.040;2023-05-20T11:48:23;20.40;47.90
12130;DHT22;6128;59.340;18.040;2023-05-20T11:50:52;20.40;47.70
12130;DHT22;6128;59.340;18.040;2023-05-20T11:53:23;20.50;47.50
12130;DHT22;6128;59.340;18.040;2023-05-20T11:55:53;20.50;47.30
12130;DHT22;6128;59.340;18.040;2023-05-20T11:58:22;20.60;47.10
12130;DHT22;6128;59.340;18.040;2023-05-20T12:00:49;20.50;46.90
12130;DHT22;6128;59.340;18.040;2023-05-20T12:03:17;20.60;46.80
12130;DHT22;6128;59.340;18.040;2023-05-20T12:05:45;20.60;46.80
12130;DHT22;6128;59.340;18.040;2023-05-20T12:08:13;20.70;46.60
12130;DHT22;6128;59.340;18.040;2023-05-20T12:10:41;20.60;46.50
12130;DHT22;6128;59.340;18.040;2023-05-20T12:13:11;20.70;46.20
12130;DHT22;6128;59.340;18.040;2023-05-20T12:15:38;20.80;46.10
12130;DHT22;6128;59.340;18.040;2023-05-20T12:18:06;20.90;46.00
12130;DHT22;6128;59.340;18.040;2023-05-20T12:20:33;20.70;45.90
12130;DHT22;6128;59.340;18.040;2023-05-20T12:23:02;20.50;46.00
12130;DHT22;6128;59.340;18.040;2023-05-20T12:25:29;20.40;46.10
12130;DHT22;6128;59.340;18.040;2023-05-20T12:27:57;20.40;46.20
12130;DHT22;6128;59.340;18.040;2023-05-20T12:30:26;20.30;46.30
12130;DHT22;6128;59.340;18.040;2023-05-20T12:32:54;20.20;46.30
12130;DHT22;6128;59.340;18.040;2023-05-20T12:35:24;20.10;46.40
12130;DHT22;6128;59.340;18.040;2023-05-20T12:37:51;20.10;46.50
12130;DHT22;6128;59.340;18.040;2023-05-20T12:40:19;19.90;46.70
12130;DHT22;6128;59.340;18.040;2023-05-20T12:42:46;19.70;47.00
12130;DHT22;6128;59.340;18.040;2023-05-20T12:45:14;19.60;47.40
12130;DHT22;6128;59.340;18.040;2023-05-20T12:47:43;19.50;47.80
12130;DHT22;6128;59.340;18.040;2023-05-20T12:50:11;19.50;48.20
12130;DHT22;6128;59.340;18.040;2023-05-20T12:52:38;19.60;48.70
12130;DHT22;6128;59.340;18.040;2023-05-20T12:55:07;19.60;49.00
12130;DHT22;6128;59.340;18.040;2023-05-20T12:57:38;19.60;49.30
12130;DHT22;6128;59.340;18.040;2023-05-20T13:00:07;19.70;49.50
12130;DHT22;6128;59.340;18.040;2023-05-20T13:02:34;19.80;49.80
12130;DHT22;6128;59.340;18.040;2023-05-20T13:05:05;19.80;49.90
12130;DHT22;6128;59.340;18.040;2023-05-20T13:07:34;19.80;50.10
12130;DHT22;6128;59.340;18.040;2023-05-20T13:10:02;19.80;50.20
12130;DHT22;6128;59.340;18.040;2023-05-20T13:12:29;19.70;50.30
12130;DHT22;6128;59.340;18.040;2023-05-20T13:14:56;19.70;50.40
12130;DHT22;6128;59.340;18.040;2023-05-20T13:17:24;19.80;50.40
12130;DHT22;6128;59.340;18.040;2023-05-20T13:19:52;19.70;50.50
12130;DHT22;6128;59.340;18.040;2023-05-20T13:22:20;19.70;50.50
12130;DHT22;6128;59.340;18.040;2023-05-20T13:24:48;19.70;50.50
12130;DHT22;6128;59.340;18.040;2023-05-20T13:27:15;20.00;50.40
12130;DHT22;6128;59.340;18.040;2023-05-20T13:29:42;20.00;50.20
12130;DHT22;6128;59.340;18.040;2023-05-20T13:32:09;20.10;50.00
12130;DHT22;6128;59.340;18.040;2023-05-20T13:34:36;19.90;49.60
12130;DHT22;6128;59.340;18.040;2023-05-20T13:37:04;19.90;49.20
12130;DHT22;6128;59.340;18.040;2023-05-20T13:39:32;19.80;48.80
12130;DHT22;6128;59.340;18.040;2023-05-20T13:42:00;19.90;48.50
12130;DHT22;6128;59.340;18.040;2023-05-20T13:44:27;19.80;48.30
12130;DHT22;6128;59.340;18.040;2023-05-20T13:46:54;19.80;48.00
12130;DHT22;6128;59.340;18.040;2023-05-20T13:49:21;19.60;48.00
12130;DHT22;6128;59.340;18.040;2023-05-20T13:51:50;19.60;48.10
12130;DHT22;6128;59.340;18.040;2023-05-20T13:54:17;19.50;48.10
12130;DHT22;6128;59.340;18.040;2023-05-20T13:56:45;19.40;48.00
12130;DHT22;6128;59.340;18.040;2023-05-20T13:59:13;19.40;48.10
12130;DHT22;6128;59.340;18.040;2023-05-20T14:01:40;19.40;48.40
12130;DHT22;6128;59.340;18.040;2023-05-20T14:04:10;19.40;48.80
12130;DHT22;6128;59.340;18.040;2023-05-20T14:06:37;19.50;49.20
12130;DHT22;6128;59.340;18.040;2023-05-20T14:09:06;19.50;49.70
12130;DHT22;6128;59.340;18.040;2023-05-20T14:11:34;19.70;50.10
12130;DHT22;6128;59.340;18.040;2023-05-20T14:14:03;19.80;50.50
12130;DHT22;6128;59.340;18.040;2023-05-20T14:16:30;19.90;50.70
12130;DHT22;6128;59.340;18.040;2023-05-20T14:18:58;20.10;50.80
12130;DHT22;6128;59.340;18.040;2023-05-20T14:21:25;20.30;50.90
12130;DHT22;6128;59.340;18.040;2023-05-20T14:23:52;20.40;50.90
12130;DHT22;6128;59.340;18.040;2023-05-20T14:26:19;20.40;50.90
12130;DHT22;6128;59.340;18.040;2023-05-20T14:28:46;20.40;50.90
12130;DHT22;6128;59.340;18.040;2023-05-20T14:31:15;20.30;50.80
12130;DHT22;6128;59.340;18.040;2023-05-20T14:33:42;20.20;50.80
12130;DHT22;6128;59.340;18.040;2023-05-20T14:36:10;20.10;50.80
12130;DHT22;6128;59.340;18.040;2023-05-20T14:38:37;20.00;50.80
12130;DHT22;6128;59.340;18.040;2023-05-20T14:41:04;20.10;50.80
12130;DHT22;6128;59.340;18.040;2023-05-20T14:43:31;20.10;50.70
12130;DHT22;6128;59.340;18.040;2023-05-20T14:45:59;20.20;50.70
12130;DHT22;6128;59.340;18.040;2023-05-20T14:48:27;20.20;50.60
12130;DHT22;6128;59.340;18.040;2023-05-20T14:50:54;20.20;50.50
12130;DHT22;6128;59.340;18.040;2023-05-20T14:53:22;20.10;50.30
12130;DHT22;6128;59.340;18.040;2023-05-20T14:55:52;20.00;50.00
12130;DHT22;6128;59.340;18.040;2023-05-20T14:58:19;20.00;49.90
12130;DHT22;6128;59.340;18.040;2023-05-20T15:00:46;19.90;49.80
12130;DHT22;6128;59.340;18.040;2023-05-20T15:03:13;19.80;49.60
12130;DHT22;6128;59.340;18.040;2023-05-20T15:05:41;19.70;49.50
12130;DHT22;6128;59.340;18.040;2023-05-20T15:08:09;19.50;49.40
12130;DHT22;6128;59.340;18.040;2023-05-20T15:10:36;19.50;49.50
12130;DHT22;6128;59.340;18.040;2023-05-20T15:13:03;19.40;49.40
12130;DHT22;6128;59.340;18.040;2023-05-20T15:15:30;19.50;49.40
12130;DHT22;6128;59.340;18.040;2023-05-20T15:17:58;19.50;49.30
12130;DHT22;6128;59.340;18.040;2023-05-20T15:20:25;19.40;49.30
12130;DHT22;6128;59.340;18.040;2023-05-20T15:22:55;19.40;49.30
12130;DHT22;6128;59.340;18.040;2023-05-20T15:25:22;19.50;49.30
12130;DHT22;6128;59.340;18.040;2023-05-20T15:27:49;19.40;49.40
12130;DHT22;6128;59.340;18.040;2023-05-20T15:30:16;19.50;49.40
12130;DHT22;6128;59.340;18.040;2023-05-20T15:32:43;19.30;49.50
12130;DHT22;6128;59.340;18.040;2023-05-20T15:35:11;19.20;49.60
12130;DHT22;6128;59.340;18.040;2023-05-20T15:37:41;19.20;49.70
12130;DHT22;6128;59.340;18.040;2023-05-20T15:40:10;19.30;49.70